Time;durP1;ratioP1;P1;durP2;ratioP2;P2;SDS_P1;SDS_P2;PMS_P1;PMS_P2;Temp;Humidity;BMP_temperature;BMP_pressure;BME280_temperature;BME280_humidity;BME280_pressure;Samples;Min_cycle;Max_cycle;Signal;HPM_P1;HPM_P2
2022/10/01 00:00:26;;;;;;;4.1;3.8;;;;;;;10.37;100;95110.43;;;;
2022/10/01 00:01:27;;;;;;;4.1;3.8;;;;;;;10.37;100;95110.43;;;;
2022/10/01 00:02:28;;;;;;;4.1;3.8;;;;;;;10.37;100;95110.43;;;;
2022/10/01 00:03:28;;;;;;;4.1;3.8;;;;;;;10.37;100;95110.43;;;;
2022/10/01 00:04:29;;;;;;;4.3;4;;;;;;;10.38;100;95133.29;;;;
2022/10/01 00:05:30;;;;;;;4.3;4;;;;;;;10.38;100;95133.29;;;;
2022/10/01 00:06:30;;;;;;;4.3;4;;;;;;;10.38;100;95133.29;;;;
2022/10/01 00:07:31;;;;;;;4.3;4;;;;;;;10.38;100;95133.29;;;;
2022/10/01 00:08:37;;;;;;;4.3;4;;;;;;;10.38;100;95133.29;;;;
2022/10/01 00:09:39;;;;;;;4.3;4;;;;;;;10.38;100;95133.29;;;;
2022/10/01 00:10:40;;;;;;;4.3;4;;;;;;;10.38;100;95133.29;;;;
2022/10/01 00:11:41;;;;;;;4.3;4;;;;;;;10.38;100;95133.29;;;;
2022/10/01 00:12:45;;;;;;;4.3;4;;;;;;;10.38;100;95133.29;;;;
2022/10/01 00:13:47;;;;;;;4.3;4;;;;;;;10.38;100;95133.29;;;;
2022/10/01 00:14:49;;;;;;;4.3;4;;;;;;;10.38;100;95133.29;;;;
2022/10/01 00:15:50;;;;;;;5.1;4.65;;;;;;;10.42;100;95134.5;;;;
2022/10/01 00:16:50;;;;;;;5.1;4.65;;;;;;;10.42;100;95134.5;;;;
2022/10/01 00:17:51;;;;;;;5.1;4.65;;;;;;;10.42;100;95134.5;;;;
2022/10/01 00:18:52;;;;;;;5.1;4.65;;;;;;;10.42;100;95134.5;;;;
2022/10/01 00:19:54;;;;;;;5.1;4.65;;;;;;;10.42;100;95134.5;;;;
2022/10/01 00:20:54;;;;;;;5.1;4.65;;;;;;;10.42;100;95134.5;;;;
2022/10/01 00:21:55;;;;;;;5.1;4.65;;;;;;;10.42;100;95134.5;;;;
2022/10/01 00:22:55;;;;;;;5.1;4.65;;;;;;;10.42;100;95134.5;;;;
2022/10/01 00:23:56;;;;;;;5.1;4.65;;;;;;;10.42;100;95134.5;;;;
2022/10/01 00:24:58;;;;;;;5.1;4.65;;;;;;;10.42;100;95134.5;;;;
2022/10/01 00:26:00;;;;;;;7.100001;6.349999;;;;;;;10.47;100;95140.75;;;;
2022/10/01 00:27:11;;;;;;;7.100001;6.349999;;;;;;;10.47;100;95140.75;;;;
2022/10/01 00:28:11;;;;;;;7.100001;6.349999;;;;;;;10.47;100;95140.75;;;;
2022/10/01 00:29:12;;;;;;;7.100001;6.349999;;;;;;;10.47;100;95140.75;;;;
2022/10/01 00:30:14;;;;;;;7.100001;6.349999;;;;;;;10.47;100;95140.75;;;;
2022/10/01 00:31:14;;;;;;;7.100001;6.349999;;;;;;;10.47;100;95140.75;;;;
2022/10/01 00:32:15;;;;;;;7.100001;6.349999;;;;;;;10.47;100;95140.75;;;;
2022/10/01 00:33:15;;;;;;;7.100001;6.349999;;;;;;;10.47;100;95140.75;;;;
2022/10/01 00:34:16;;;;;;;7.100001;6.349999;;;;;;;10.47;100;95140.75;;;;
2022/10/01 00:35:16;;;;;;;7.100001;6.349999;;;;;;;10.47;100;95140.75;;;;
2022/10/01 00:36:17;;;;;;;8.1;7.400001;;;;;;;10.52;100;95138.81;;;;
2022/10/01 00:37:17;;;;;;;8.1;7.400001;;;;;;;10.52;100;95138.81;;;;
2022/10/01 00:38:18;;;;;;;8.1;7.400001;;;;;;;10.52;100;95138.81;;;;
2022/10/01 00:39:18;;;;;;;8.1;7.400001;;;;;;;10.52;100;95138.81;;;;
2022/10/01 00:40:19;;;;;;;8.1;7.400001;;;;;;;10.52;100;95138.81;;;;
2022/10/01 00:41:21;;;;;;;8.1;7.400001;;;;;;;10.52;100;95138.81;;;;
2022/10/01 00:42:21;;;;;;;8.1;7.400001;;;;;;;10.52;100;95138.81;;;;
2022/10/01 00:43:24;;;;;;;8.1;7.400001;;;;;;;10.52;100;95138.81;;;;
2022/10/01 00:44:27;;;;;;;8.1;7.400001;;;;;;;10.52;100;95138.81;;;;
2022/10/01 00:45:32;;;;;;;8.1;7.400001;;;;;;;10.52;100;95138.81;;;;
2022/10/01 00:46:32;;;;;;;8.1;7.400001;;;;;;;10.52;100;95138.81;;;;
2022/10/01 00:47:38;;;;;;;8.9;8.050001;;;;;;;10.49;100;95142.26;;;;
2022/10/01 00:48:43;;;;;;;8.9;8.050001;;;;;;;10.49;100;95142.26;;;;
2022/10/01 00:49:51;;;;;;;8.9;8.050001;;;;;;;10.49;100;95142.26;;;;
2022/10/01 00:50:56;;;;;;;8.9;8.050001;;;;;;;10.49;100;95142.26;;;;
2022/10/01 00:51:57;;;;;;;8.9;8.050001;;;;;;;10.49;100;95142.26;;;;
2022/10/01 00:53:01;;;;;;;8.9;8.050001;;;;;;;10.49;100;95142.26;;;;
2022/10/01 00:54:07;;;;;;;8.9;8.050001;;;;;;;10.49;100;95142.26;;;;
2022/10/01 00:55:12;;;;;;;8.9;8.050001;;;;;;;10.49;100;95142.26;;;;
2022/10/01 00:56:17;;;;;;;8.9;8.050001;;;;;;;10.49;100;95142.26;;;;
2022/10/01 00:57:18;;;;;;;8.9;8.050001;;;;;;;10.49;100;95142.26;;;;
2022/10/01 00:58:22;;;;;;;8.9;8.050001;;;;;;;10.49;100;95142.26;;;;
2022/10/01 00:59:24;;;;;;;8.9;8.050001;;;;;;;10.49;100;95142.26;;;;
2022/10/01 01:00:26;;;;;;;8.9;8.050001;;;;;;;10.49;100;95142.26;;;;
2022/10/01 01:01:27;;;;;;;8.9;8.050001;;;;;;;10.49;100;95142.26;;;;
2022/10/01 01:02:28;;;;;;;8.9;8.050001;;;;;;;10.49;100;95142.26;;;;
2022/10/01 01:03:28;;;;;;;8.9;8.050001;;;;;;;10.49;100;95142.26;;;;
2022/10/01 01:04:28;;;;;;;8.9;8.050001;;;;;;;10.49;100;95142.26;;;;
2022/10/01 01:05:29;;;;;;;8.9;8.050001;;;;;;;10.49;100;95142.26;;;;
2022/10/01 01:06:30;;;;;;;8.9;8.050001;;;;;;;10.49;100;95142.26;;;;
2022/10/01 01:07:30;;;;;;;8.9;8.050001;;;;;;;10.49;100;95142.26;;;;
2022/10/01 01:08:32;;;;;;;11;10.05;;;;;;;10.51;100;95122.13;;;;
2022/10/01 01:09:33;;;;;;;11;10.05;;;;;;;10.51;100;95122.13;;;;
2022/10/01 01:10:37;;;;;;;11;10.05;;;;;;;10.51;100;95122.13;;;;
2022/10/01 01:11:46;;;;;;;11;10.05;;;;;;;10.51;100;95122.13;;;;
2022/10/01 01:12:53;;;;;;;11;10.05;;;;;;;10.51;100;95122.13;;;;
2022/10/01 01:14:08;;;;;;;11;10.05;;;;;;;10.51;100;95122.13;;;;
2022/10/01 01:15:17;;;;;;;11;10.05;;;;;;;10.51;100;95122.13;;;;
2022/10/01 01:16:26;;;;;;;11;10.05;;;;;;;10.51;100;95122.13;;;;
2022/10/01 01:17:33;;;;;;;11;10.05;;;;;;;10.51;100;95122.13;;;;
2022/10/01 01:18:42;;;;;;;11;10.05;;;;;;;10.51;100;95122.13;;;;
2022/10/01 01:19:51;;;;;;;11.4;10.4;;;;;;;10.37;100;95103.44;;;;
2022/10/01 01:21:03;;;;;;;11.4;10.4;;;;;;;10.37;100;95103.44;;;;
2022/10/01 01:22:14;;;;;;;11.4;10.4;;;;;;;10.37;100;95103.44;;;;
2022/10/01 01:23:17;;;;;;;11.4;10.4;;;;;;;10.37;100;95103.44;;;;
2022/10/01 01:24:38;;;;;;;11.4;10.4;;;;;;;10.37;100;95103.44;;;;
2022/10/01 01:25:48;;;;;;;11.4;10.4;;;;;;;10.37;100;95103.44;;;;
2022/10/01 01:26:56;;;;;;;11.4;10.4;;;;;;;10.37;100;95103.44;;;;
2022/10/01 01:28:09;;;;;;;11.4;10.4;;;;;;;10.37;100;95103.44;;;;
2022/10/01 01:29:19;;;;;;;11.4;10.4;;;;;;;10.37;100;95103.44;;;;
2022/10/01 01:30:25;;;;;;;11.15;10;;;;;;;10.06;100;95113.17;;;;
2022/10/01 01:31:26;;;;;;;11.15;10;;;;;;;10.06;100;95113.17;;;;
2022/10/01 01:32:34;;;;;;;11.15;10;;;;;;;10.06;100;95113.17;;;;
2022/10/01 01:33:43;;;;;;;11.15;10;;;;;;;10.06;100;95113.17;;;;
2022/10/01 01:34:48;;;;;;;11.15;10;;;;;;;10.06;100;95113.17;;;;
2022/10/01 01:35:51;;;;;;;11.15;10;;;;;;;10.06;100;95113.17;;;;
2022/10/01 01:36:57;;;;;;;11.15;10;;;;;;;10.06;100;95113.17;;;;
2022/10/01 01:38:06;;;;;;;11.15;10;;;;;;;10.06;100;95113.17;;;;
2022/10/01 01:39:13;;;;;;;11.15;10;;;;;;;10.06;100;95113.17;;;;
2022/10/01 01:40:16;;;;;;;11.15;10;;;;;;;10.06;100;95113.17;;;;
2022/10/01 01:41:19;;;;;;;9.999998;9.1;;;;;;;9.61;100;95122.43;;;;
2022/10/01 01:42:22;;;;;;;9.999998;9.1;;;;;;;9.61;100;95122.43;;;;
2022/10/01 01:43:30;;;;;;;9.999998;9.1;;;;;;;9.61;100;95122.43;;;;
2022/10/01 01:44:33;;;;;;;9.999998;9.1;;;;;;;9.61;100;95122.43;;;;
2022/10/01 01:45:38;;;;;;;9.999998;9.1;;;;;;;9.61;100;95122.43;;;;
2022/10/01 01:46:41;;;;;;;9.999998;9.1;;;;;;;9.61;100;95122.43;;;;
2022/10/01 01:47:44;;;;;;;9.999998;9.1;;;;;;;9.61;100;95122.43;;;;
2022/10/01 01:48:46;;;;;;;9.999998;9.1;;;;;;;9.61;100;95122.43;;;;
2022/10/01 01:49:50;;;;;;;9.999998;9.1;;;;;;;9.61;100;95122.43;;;;
2022/10/01 01:50:51;;;;;;;9.999998;9.1;;;;;;;9.61;100;95122.43;;;;
2022/10/01 01:51:56;;;;;;;9.950001;8.950001;;;;;;;9.27;100;95124.19;;;;
2022/10/01 01:53:03;;;;;;;9.950001;8.950001;;;;;;;9.27;100;95124.19;;;;
2022/10/01 01:54:04;;;;;;;9.950001;8.950001;;;;;;;9.27;100;95124.19;;;;
2022/10/01 01:55:07;;;;;;;9.950001;8.950001;;;;;;;9.27;100;95124.19;;;;
2022/10/01 01:56:08;;;;;;;9.950001;8.950001;;;;;;;9.27;100;95124.19;;;;
2022/10/01 01:57:09;;;;;;;9.950001;8.950001;;;;;;;9.27;100;95124.19;;;;
2022/10/01 01:58:11;;;;;;;9.950001;8.950001;;;;;;;9.27;100;95124.19;;;;
2022/10/01 01:59:11;;;;;;;9.950001;8.950001;;;;;;;9.27;100;95124.19;;;;
2022/10/01 02:00:13;;;;;;;9.950001;8.950001;;;;;;;9.27;100;95124.19;;;;
2022/10/01 02:01:14;;;;;;;9.950001;8.950001;;;;;;;9.27;100;95124.19;;;;
2022/10/01 02:02:32;;;;;;;9.6;8.3;;;;;;;8.94;100;95114.14;;;;
2022/10/01 02:03:34;;;;;;;9.6;8.3;;;;;;;8.94;100;95114.14;;;;
2022/10/01 02:04:34;;;;;;;9.6;8.3;;;;;;;8.94;100;95114.14;;;;
2022/10/01 02:05:42;;;;;;;9.6;8.3;;;;;;;8.94;100;95114.14;;;;
2022/10/01 02:06:54;;;;;;;9.6;8.3;;;;;;;8.94;100;95114.14;;;;
2022/10/01 02:08:11;;;;;;;9.6;8.3;;;;;;;8.94;100;95114.14;;;;
2022/10/01 02:09:24;;;;;;;9.6;8.3;;;;;;;8.94;100;95114.14;;;;
2022/10/01 02:10:31;;;;;;;9.6;8.3;;;;;;;8.94;100;95114.14;;;;
2022/10/01 02:11:43;;;;;;;9.6;8.3;;;;;;;8.94;100;95114.14;;;;
2022/10/01 02:12:53;;;;;;;9.4;8.399999;;;;;;;8.61;100;95108.49;;;;
2022/10/01 02:14:09;;;;;;;9.4;8.399999;;;;;;;8.61;100;95108.49;;;;
2022/10/01 02:15:20;;;;;;;9.4;8.399999;;;;;;;8.61;100;95108.49;;;;
2022/10/01 02:16:26;;;;;;;9.4;8.399999;;;;;;;8.61;100;95108.49;;;;
2022/10/01 02:17:34;;;;;;;9.4;8.399999;;;;;;;8.61;100;95108.49;;;;
2022/10/01 02:18:45;;;;;;;9.4;8.399999;;;;;;;8.61;100;95108.49;;;;
2022/10/01 02:19:53;;;;;;;9.4;8.399999;;;;;;;8.61;100;95108.49;;;;
2022/10/01 02:20:58;;;;;;;9.4;8.399999;;;;;;;8.61;100;95108.49;;;;
2022/10/01 02:22:08;;;;;;;9.4;8.399999;;;;;;;8.61;100;95108.49;;;;
2022/10/01 02:23:11;;;;;;;8.550001;7.7;;;;;;;8.41;100;95115.61;;;;
2022/10/01 02:24:18;;;;;;;8.550001;7.7;;;;;;;8.41;100;95115.61;;;;
2022/10/01 02:25:27;;;;;;;8.550001;7.7;;;;;;;8.41;100;95115.61;;;;
2022/10/01 02:26:34;;;;;;;8.550001;7.7;;;;;;;8.41;100;95115.61;;;;
2022/10/01 02:27:36;;;;;;;8.550001;7.7;;;;;;;8.41;100;95115.61;;;;
2022/10/01 02:28:42;;;;;;;8.550001;7.7;;;;;;;8.41;100;95115.61;;;;
2022/10/01 02:29:45;;;;;;;8.550001;7.7;;;;;;;8.41;100;95115.61;;;;
2022/10/01 02:30:49;;;;;;;8.550001;7.7;;;;;;;8.41;100;95115.61;;;;
2022/10/01 02:31:54;;;;;;;8.550001;7.7;;;;;;;8.41;100;95115.61;;;;
2022/10/01 02:32:57;;;;;;;8.550001;7.7;;;;;;;8.41;100;95115.61;;;;
2022/10/01 02:33:59;;;;;;;8;7.25;;;;;;;8.22;100;95115.45;;;;
2022/10/01 02:35:02;;;;;;;8;7.25;;;;;;;8.22;100;95115.45;;;;
2022/10/01 02:36:06;;;;;;;8;7.25;;;;;;;8.22;100;95115.45;;;;
2022/10/01 02:37:09;;;;;;;8;7.25;;;;;;;8.22;100;95115.45;;;;
2022/10/01 02:38:11;;;;;;;8;7.25;;;;;;;8.22;100;95115.45;;;;
2022/10/01 02:39:14;;;;;;;8;7.25;;;;;;;8.22;100;95115.45;;;;
2022/10/01 02:40:16;;;;;;;8;7.25;;;;;;;8.22;100;95115.45;;;;
2022/10/01 02:41:22;;;;;;;8;7.25;;;;;;;8.22;100;95115.45;;;;
2022/10/01 02:42:28;;;;;;;8;7.25;;;;;;;8.22;100;95115.45;;;;
2022/10/01 02:43:31;;;;;;;8;7.25;;;;;;;8.22;100;95115.45;;;;
2022/10/01 02:44:38;;;;;;;7.849999;7.050002;;;;;;;8.04;100;95102.06;;;;
2022/10/01 02:45:43;;;;;;;7.849999;7.050002;;;;;;;8.04;100;95102.06;;;;
2022/10/01 02:46:49;;;;;;;7.849999;7.050002;;;;;;;8.04;100;95102.06;;;;
2022/10/01 02:47:59;;;;;;;7.849999;7.050002;;;;;;;8.04;100;95102.06;;;;
2022/10/01 02:49:03;;;;;;;7.849999;7.050002;;;;;;;8.04;100;95102.06;;;;
2022/10/01 02:50:04;;;;;;;7.849999;7.050002;;;;;;;8.04;100;95102.06;;;;
2022/10/01 02:51:08;;;;;;;7.849999;7.050002;;;;;;;8.04;100;95102.06;;;;
2022/10/01 02:52:21;;;;;;;7.849999;7.050002;;;;;;;8.04;100;95102.06;;;;
2022/10/01 02:53:29;;;;;;;7.849999;7.050002;;;;;;;8.04;100;95102.06;;;;
2022/10/01 02:54:36;;;;;;;7.849999;7.050002;;;;;;;8.04;100;95102.06;;;;
2022/10/01 02:55:44;;;;;;;7.650001;6.95;;;;;;;7.83;100;95089.98;;;;
2022/10/01 02:57:50;;;;;;;7.650001;6.95;;;;;;;7.83;100;95089.98;;;;
2022/10/01 02:58:51;;;;;;;7.650001;6.95;;;;;;;7.83;100;95089.98;;;;
2022/10/01 02:59:52;;;;;;;7.650001;6.95;;;;;;;7.83;100;95089.98;;;;
2022/10/01 03:00:54;;;;;;;7.650001;6.95;;;;;;;7.83;100;95089.98;;;;
2022/10/01 03:01:54;;;;;;;7.650001;6.95;;;;;;;7.83;100;95089.98;;;;
2022/10/01 03:02:55;;;;;;;7.650001;6.95;;;;;;;7.83;100;95089.98;;;;
2022/10/01 03:03:56;;;;;;;7.650001;6.95;;;;;;;7.83;100;95089.98;;;;
2022/10/01 03:04:56;;;;;;;7.650001;6.95;;;;;;;7.83;100;95089.98;;;;
2022/10/01 03:05:58;;;;;;;7.35;6.65;;;;;;;7.61;100;95081.95;;;;
2022/10/01 03:07:02;;;;;;;7.35;6.65;;;;;;;7.61;100;95081.95;;;;
2022/10/01 03:08:03;;;;;;;7.35;6.65;;;;;;;7.61;100;95081.95;;;;
2022/10/01 03:09:03;;;;;;;7.35;6.65;;;;;;;7.61;100;95081.95;;;;
2022/10/01 03:10:04;;;;;;;7.35;6.65;;;;;;;7.61;100;95081.95;;;;
2022/10/01 03:11:08;;;;;;;7.35;6.65;;;;;;;7.61;100;95081.95;;;;
2022/10/01 03:12:09;;;;;;;7.35;6.65;;;;;;;7.61;100;95081.95;;;;
2022/10/01 03:13:10;;;;;;;7.35;6.65;;;;;;;7.61;100;95081.95;;;;
2022/10/01 03:14:10;;;;;;;7.35;6.65;;;;;;;7.61;100;95081.95;;;;
2022/10/01 03:15:11;;;;;;;7.35;6.65;;;;;;;7.61;100;95081.95;;;;
2022/10/01 03:16:14;;;;;;;7.35;6.65;;;;;;;7.61;100;95081.95;;;;
2022/10/01 03:17:14;;;;;;;7.7;6.950001;;;;;;;7.34;100;95083.67;;;;
2022/10/01 03:18:16;;;;;;;7.7;6.950001;;;;;;;7.34;100;95083.67;;;;
2022/10/01 03:19:16;;;;;;;7.7;6.950001;;;;;;;7.34;100;95083.67;;;;
2022/10/01 03:20:17;;;;;;;7.7;6.950001;;;;;;;7.34;100;95083.67;;;;
2022/10/01 03:21:18;;;;;;;7.7;6.950001;;;;;;;7.34;100;95083.67;;;;
2022/10/01 03:22:21;;;;;;;7.7;6.950001;;;;;;;7.34;100;95083.67;;;;
2022/10/01 03:23:22;;;;;;;7.7;6.950001;;;;;;;7.34;100;95083.67;;;;
2022/10/01 03:24:23;;;;;;;7.7;6.950001;;;;;;;7.34;100;95083.67;;;;
2022/10/01 03:25:23;;;;;;;7.7;6.950001;;;;;;;7.34;100;95083.67;;;;
2022/10/01 03:26:24;;;;;;;7.7;6.950001;;;;;;;7.34;100;95083.67;;;;
2022/10/01 03:27:24;;;;;;;7.500001;6.799999;;;;;;;7.12;100;95094.9;;;;
2022/10/01 03:28:25;;;;;;;7.500001;6.799999;;;;;;;7.12;100;95094.9;;;;
2022/10/01 03:29:25;;;;;;;7.500001;6.799999;;;;;;;7.12;100;95094.9;;;;
2022/10/01 03:30:26;;;;;;;7.500001;6.799999;;;;;;;7.12;100;95094.9;;;;
2022/10/01 03:31:26;;;;;;;7.500001;6.799999;;;;;;;7.12;100;95094.9;;;;
2022/10/01 03:32:27;;;;;;;7.500001;6.799999;;;;;;;7.12;100;95094.9;;;;
2022/10/01 03:33:27;;;;;;;7.500001;6.799999;;;;;;;7.12;100;95094.9;;;;
2022/10/01 03:34:28;;;;;;;7.500001;6.799999;;;;;;;7.12;100;95094.9;;;;
2022/10/01 03:35:28;;;;;;;7.500001;6.799999;;;;;;;7.12;100;95094.9;;;;
2022/10/01 03:36:29;;;;;;;7.500001;6.799999;;;;;;;7.12;100;95094.9;;;;
2022/10/01 03:37:29;;;;;;;7.500001;6.799999;;;;;;;7.12;100;95094.9;;;;
2022/10/01 03:38:30;;;;;;;6.9;6.2;;;;;;;7;100;95085.57;;;;
2022/10/01 03:39:30;;;;;;;6.9;6.2;;;;;;;7;100;95085.57;;;;
2022/10/01 03:40:33;;;;;;;6.9;6.2;;;;;;;7;100;95085.57;;;;
2022/10/01 03:41:33;;;;;;;6.9;6.2;;;;;;;7;100;95085.57;;;;
2022/10/01 03:42:34;;;;;;;6.9;6.2;;;;;;;7;100;95085.57;;;;
2022/10/01 03:43:34;;;;;;;6.9;6.2;;;;;;;7;100;95085.57;;;;
2022/10/01 03:44:35;;;;;;;6.9;6.2;;;;;;;7;100;95085.57;;;;
2022/10/01 03:45:35;;;;;;;6.9;6.2;;;;;;;7;100;95085.57;;;;
2022/10/01 03:46:36;;;;;;;6.9;6.2;;;;;;;7;100;95085.57;;;;
2022/10/01 03:47:38;;;;;;;6.9;6.2;;;;;;;7;100;95085.57;;;;
2022/10/01 03:48:38;;;;;;;7.25;6.550001;;;;;;;6.79;100;95068.05;;;;
2022/10/01 03:49:39;;;;;;;7.25;6.550001;;;;;;;6.79;100;95068.05;;;;
2022/10/01 03:50:39;;;;;;;7.25;6.550001;;;;;;;6.79;100;95068.05;;;;
2022/10/01 03:51:40;;;;;;;7.25;6.550001;;;;;;;6.79;100;95068.05;;;;
2022/10/01 03:52:43;;;;;;;7.25;6.550001;;;;;;;6.79;100;95068.05;;;;
2022/10/01 03:53:44;;;;;;;7.25;6.550001;;;;;;;6.79;100;95068.05;;;;
2022/10/01 03:54:45;;;;;;;7.25;6.550001;;;;;;;6.79;100;95068.05;;;;
2022/10/01 03:55:46;;;;;;;7.25;6.550001;;;;;;;6.79;100;95068.05;;;;
2022/10/01 03:56:47;;;;;;;7.25;6.550001;;;;;;;6.79;100;95068.05;;;;
2022/10/01 03:57:49;;;;;;;7.25;6.550001;;;;;;;6.79;100;95068.05;;;;
2022/10/01 03:58:49;;;;;;;7.25;6.550001;;;;;;;6.79;100;95068.05;;;;
2022/10/01 03:59:50;;;;;;;7.5;6.8;;;;;;;6.64;100;95066.06;;;;
2022/10/01 04:00:50;;;;;;;7.5;6.8;;;;;;;6.64;100;95066.06;;;;
2022/10/01 04:01:51;;;;;;;7.5;6.8;;;;;;;6.64;100;95066.06;;;;
2022/10/01 04:02:52;;;;;;;7.5;6.8;;;;;;;6.64;100;95066.06;;;;
2022/10/01 04:03:53;;;;;;;7.5;6.8;;;;;;;6.64;100;95066.06;;;;
2022/10/01 04:04:53;;;;;;;7.5;6.8;;;;;;;6.64;100;95066.06;;;;
2022/10/01 04:05:54;;;;;;;7.5;6.8;;;;;;;6.64;100;95066.06;;;;
2022/10/01 04:06:54;;;;;;;7.5;6.8;;;;;;;6.64;100;95066.06;;;;
2022/10/01 04:07:55;;;;;;;7.5;6.8;;;;;;;6.64;100;95066.06;;;;
2022/10/01 04:08:55;;;;;;;7.5;6.8;;;;;;;6.64;100;95066.06;;;;
2022/10/01 04:09:56;;;;;;;6.849999;6.1;;;;;;;6.57;100;95071.36;;;;
2022/10/01 04:10:57;;;;;;;6.849999;6.1;;;;;;;6.57;100;95071.36;;;;
2022/10/01 04:11:58;;;;;;;6.849999;6.1;;;;;;;6.57;100;95071.36;;;;
2022/10/01 04:12:59;;;;;;;6.849999;6.1;;;;;;;6.57;100;95071.36;;;;
2022/10/01 04:14:00;;;;;;;6.849999;6.1;;;;;;;6.57;100;95071.36;;;;
2022/10/01 04:15:00;;;;;;;6.849999;6.1;;;;;;;6.57;100;95071.36;;;;
2022/10/01 04:16:01;;;;;;;6.849999;6.1;;;;;;;6.57;100;95071.36;;;;
2022/10/01 04:17:01;;;;;;;6.849999;6.1;;;;;;;6.57;100;95071.36;;;;
2022/10/01 04:18:04;;;;;;;6.849999;6.1;;;;;;;6.57;100;95071.36;;;;
2022/10/01 04:19:04;;;;;;;6.849999;6.1;;;;;;;6.57;100;95071.36;;;;
2022/10/01 04:20:05;;;;;;;6.849999;6.1;;;;;;;6.57;100;95071.36;;;;
2022/10/01 04:21:06;;;;;;;7.65;6.95;;;;;;;6.5;100;95066.97;;;;
2022/10/01 04:22:07;;;;;;;7.65;6.95;;;;;;;6.5;100;95066.97;;;;
2022/10/01 04:23:07;;;;;;;7.65;6.95;;;;;;;6.5;100;95066.97;;;;
2022/10/01 04:24:08;;;;;;;7.65;6.95;;;;;;;6.5;100;95066.97;;;;
2022/10/01 04:25:09;;;;;;;7.65;6.95;;;;;;;6.5;100;95066.97;;;;
2022/10/01 04:26:12;;;;;;;7.65;6.95;;;;;;;6.5;100;95066.97;;;;
2022/10/01 04:27:12;;;;;;;7.65;6.95;;;;;;;6.5;100;95066.97;;;;
2022/10/01 04:28:13;;;;;;;7.65;6.95;;;;;;;6.5;100;95066.97;;;;
2022/10/01 04:29:13;;;;;;;7.65;6.95;;;;;;;6.5;100;95066.97;;;;
2022/10/01 04:30:14;;;;;;;7.65;6.95;;;;;;;6.5;100;95066.97;;;;
2022/10/01 04:31:33;;;;;;;7.200001;6.5;;;;;;;6.46;100;95081.09;;;;
2022/10/01 04:32:33;;;;;;;7.200001;6.5;;;;;;;6.46;100;95081.09;;;;
2022/10/01 04:33:34;;;;;;;7.200001;6.5;;;;;;;6.46;100;95081.09;;;;
2022/10/01 04:35:10;;;;;;;7.200001;6.5;;;;;;;6.46;100;95081.09;;;;
2022/10/01 04:36:10;;;;;;;7.200001;6.5;;;;;;;6.46;100;95081.09;;;;
2022/10/01 04:37:11;;;;;;;7.200001;6.5;;;;;;;6.46;100;95081.09;;;;
2022/10/01 04:38:12;;;;;;;7.200001;6.5;;;;;;;6.46;100;95081.09;;;;
2022/10/01 04:39:14;;;;;;;7.200001;6.5;;;;;;;6.46;100;95081.09;;;;
2022/10/01 04:40:15;;;;;;;7.200001;6.5;;;;;;;6.46;100;95081.09;;;;
2022/10/01 04:41:15;;;;;;;7.200001;6.5;;;;;;;6.46;100;95081.09;;;;
2022/10/01 04:42:16;;;;;;;8.05;6.749999;;;;;;;6.38;100;95090.01;;;;
2022/10/01 04:43:17;;;;;;;8.05;6.749999;;;;;;;6.38;100;95090.01;;;;
2022/10/01 04:44:18;;;;;;;8.05;6.749999;;;;;;;6.38;100;95090.01;;;;
2022/10/01 04:45:18;;;;;;;8.05;6.749999;;;;;;;6.38;100;95090.01;;;;
2022/10/01 04:46:19;;;;;;;8.05;6.749999;;;;;;;6.38;100;95090.01;;;;
2022/10/01 04:47:20;;;;;;;8.05;6.749999;;;;;;;6.38;100;95090.01;;;;
2022/10/01 04:48:20;;;;;;;8.05;6.749999;;;;;;;6.38;100;95090.01;;;;
2022/10/01 04:49:20;;;;;;;8.05;6.749999;;;;;;;6.38;100;95090.01;;;;
2022/10/01 04:50:21;;;;;;;8.05;6.749999;;;;;;;6.38;100;95090.01;;;;
2022/10/01 04:51:23;;;;;;;8.05;6.749999;;;;;;;6.38;100;95090.01;;;;
2022/10/01 04:52:24;;;;;;;8.05;6.749999;;;;;;;6.38;100;95090.01;;;;
2022/10/01 04:53:24;;;;;;;8.05;6.749999;;;;;;;6.38;100;95090.01;;;;
2022/10/01 04:54:25;;;;;;;8.05;6.749999;;;;;;;6.38;100;95090.01;;;;
2022/10/01 04:55:25;;;;;;;8.05;6.749999;;;;;;;6.38;100;95090.01;;;;
2022/10/01 04:56:26;;;;;;;8.05;6.749999;;;;;;;6.38;100;95090.01;;;;
2022/10/01 04:57:28;;;;;;;8.05;6.749999;;;;;;;6.38;100;95090.01;;;;
2022/10/01 04:58:30;;;;;;;8.05;6.749999;;;;;;;6.38;100;95090.01;;;;
2022/10/01 04:59:30;;;;;;;8.05;6.749999;;;;;;;6.38;100;95090.01;;;;
2022/10/01 05:00:31;;;;;;;8.05;6.749999;;;;;;;6.38;100;95090.01;;;;
2022/10/01 05:01:32;;;;;;;8.05;6.749999;;;;;;;6.38;100;95090.01;;;;
2022/10/01 05:02:33;;;;;;;8.05;6.749999;;;;;;;6.38;100;95090.01;;;;
2022/10/01 05:03:34;;;;;;;8.700001;7.75;;;;;;;6.4;100;95085.8;;;;
2022/10/01 05:04:34;;;;;;;8.700001;7.75;;;;;;;6.4;100;95085.8;;;;
2022/10/01 05:05:36;;;;;;;8.700001;7.75;;;;;;;6.4;100;95085.8;;;;
2022/10/01 05:06:36;;;;;;;8.700001;7.75;;;;;;;6.4;100;95085.8;;;;
2022/10/01 05:07:37;;;;;;;8.700001;7.75;;;;;;;6.4;100;95085.8;;;;
2022/10/01 05:08:39;;;;;;;8.700001;7.75;;;;;;;6.4;100;95085.8;;;;
2022/10/01 05:09:39;;;;;;;8.700001;7.75;;;;;;;6.4;100;95085.8;;;;
2022/10/01 05:10:40;;;;;;;8.700001;7.75;;;;;;;6.4;100;95085.8;;;;
2022/10/01 05:11:40;;;;;;;8.700001;7.75;;;;;;;6.4;100;95085.8;;;;
2022/10/01 05:12:41;;;;;;;8.700001;7.75;;;;;;;6.4;100;95085.8;;;;
2022/10/01 05:13:41;;;;;;;8.700001;7.75;;;;;;;6.4;100;95085.8;;;;
2022/10/01 05:14:42;;;;;;;8.7;7.25;;;;;;;6.58;100;95083.09;;;;
2022/10/01 05:15:43;;;;;;;8.7;7.25;;;;;;;6.58;100;95083.09;;;;
2022/10/01 05:16:44;;;;;;;8.7;7.25;;;;;;;6.58;100;95083.09;;;;
2022/10/01 05:17:45;;;;;;;8.7;7.25;;;;;;;6.58;100;95083.09;;;;
2022/10/01 05:18:46;;;;;;;8.7;7.25;;;;;;;6.58;100;95083.09;;;;
2022/10/01 05:19:46;;;;;;;8.7;7.25;;;;;;;6.58;100;95083.09;;;;
2022/10/01 05:20:47;;;;;;;8.7;7.25;;;;;;;6.58;100;95083.09;;;;
2022/10/01 05:21:48;;;;;;;8.7;7.25;;;;;;;6.58;100;95083.09;;;;
2022/10/01 05:22:49;;;;;;;8.7;7.25;;;;;;;6.58;100;95083.09;;;;
2022/10/01 05:23:49;;;;;;;8.7;7.25;;;;;;;6.58;100;95083.09;;;;
2022/10/01 05:24:50;;;;;;;8.050001;6.95;;;;;;;6.76;100;95076.33;;;;
2022/10/01 05:25:51;;;;;;;8.050001;6.95;;;;;;;6.76;100;95076.33;;;;
2022/10/01 05:26:52;;;;;;;8.050001;6.95;;;;;;;6.76;100;95076.33;;;;
2022/10/01 05:27:53;;;;;;;8.050001;6.95;;;;;;;6.76;100;95076.33;;;;
2022/10/01 05:28:59;;;;;;;8.050001;6.95;;;;;;;6.76;100;95076.33;;;;
2022/10/01 05:30:00;;;;;;;8.050001;6.95;;;;;;;6.76;100;95076.33;;;;
2022/10/01 05:31:01;;;;;;;8.050001;6.95;;;;;;;6.76;100;95076.33;;;;
2022/10/01 05:32:02;;;;;;;8.050001;6.95;;;;;;;6.76;100;95076.33;;;;
2022/10/01 05:33:03;;;;;;;8.050001;6.95;;;;;;;6.76;100;95076.33;;;;
2022/10/01 05:34:04;;;;;;;8.050001;6.95;;;;;;;6.76;100;95076.33;;;;
2022/10/01 05:35:05;;;;;;;8.050001;6.95;;;;;;;6.76;100;95076.33;;;;
2022/10/01 05:36:07;;;;;;;7.799999;7.099999;;;;;;;6.98;100;95087.56;;;;
2022/10/01 05:37:07;;;;;;;7.799999;7.099999;;;;;;;6.98;100;95087.56;;;;
2022/10/01 05:38:08;;;;;;;7.799999;7.099999;;;;;;;6.98;100;95087.56;;;;
2022/10/01 05:39:08;;;;;;;7.799999;7.099999;;;;;;;6.98;100;95087.56;;;;
2022/10/01 05:40:09;;;;;;;7.799999;7.099999;;;;;;;6.98;100;95087.56;;;;
2022/10/01 05:41:10;;;;;;;7.799999;7.099999;;;;;;;6.98;100;95087.56;;;;
2022/10/01 05:42:10;;;;;;;7.799999;7.099999;;;;;;;6.98;100;95087.56;;;;
2022/10/01 05:43:11;;;;;;;7.799999;7.099999;;;;;;;6.98;100;95087.56;;;;
2022/10/01 05:44:13;;;;;;;7.799999;7.099999;;;;;;;6.98;100;95087.56;;;;
2022/10/01 05:45:13;;;;;;;7.799999;7.099999;;;;;;;6.98;100;95087.56;;;;
2022/10/01 05:46:14;;;;;;;8.249999;7.400001;;;;;;;7.3;100;95084.68;;;;
2022/10/01 05:47:14;;;;;;;8.249999;7.400001;;;;;;;7.3;100;95084.68;;;;
2022/10/01 05:48:16;;;;;;;8.249999;7.400001;;;;;;;7.3;100;95084.68;;;;
2022/10/01 05:49:17;;;;;;;8.249999;7.400001;;;;;;;7.3;100;95084.68;;;;
2022/10/01 05:50:17;;;;;;;8.249999;7.400001;;;;;;;7.3;100;95084.68;;;;
2022/10/01 05:51:18;;;;;;;8.249999;7.400001;;;;;;;7.3;100;95084.68;;;;
2022/10/01 05:52:18;;;;;;;8.249999;7.400001;;;;;;;7.3;100;95084.68;;;;
2022/10/01 05:53:19;;;;;;;8.249999;7.400001;;;;;;;7.3;100;95084.68;;;;
2022/10/01 05:54:22;;;;;;;8.249999;7.400001;;;;;;;7.3;100;95084.68;;;;
2022/10/01 05:55:22;;;;;;;8.249999;7.400001;;;;;;;7.3;100;95084.68;;;;
2022/10/01 05:56:23;;;;;;;8.249999;7.400001;;;;;;;7.3;100;95084.68;;;;
2022/10/01 05:57:24;;;;;;;8.299999;7.5;;;;;;;7.8;100;95101.31;;;;
2022/10/01 05:58:25;;;;;;;8.299999;7.5;;;;;;;7.8;100;95101.31;;;;
2022/10/01 05:59:25;;;;;;;8.299999;7.5;;;;;;;7.8;100;95101.31;;;;
2022/10/01 06:00:27;;;;;;;8.299999;7.5;;;;;;;7.8;100;95101.31;;;;
2022/10/01 06:01:31;;;;;;;8.299999;7.5;;;;;;;7.8;100;95101.31;;;;
2022/10/01 06:02:31;;;;;;;8.299999;7.5;;;;;;;7.8;100;95101.31;;;;
2022/10/01 06:03:32;;;;;;;8.299999;7.5;;;;;;;7.8;100;95101.31;;;;
2022/10/01 06:04:32;;;;;;;8.299999;7.5;;;;;;;7.8;100;95101.31;;;;
2022/10/01 06:05:33;;;;;;;8.299999;7.5;;;;;;;7.8;100;95101.31;;;;
2022/10/01 06:06:35;;;;;;;8.299999;7.5;;;;;;;7.8;100;95101.31;;;;
2022/10/01 06:07:35;;;;;;;8.550001;7.75;;;;;;;8.26;100;95108;;;;
2022/10/01 06:08:36;;;;;;;8.550001;7.75;;;;;;;8.26;100;95108;;;;
2022/10/01 06:09:37;;;;;;;8.550001;7.75;;;;;;;8.26;100;95108;;;;
2022/10/01 06:10:37;;;;;;;8.550001;7.75;;;;;;;8.26;100;95108;;;;
2022/10/01 06:11:38;;;;;;;8.550001;7.75;;;;;;;8.26;100;95108;;;;
2022/10/01 06:12:39;;;;;;;8.550001;7.75;;;;;;;8.26;100;95108;;;;
2022/10/01 06:13:45;;;;;;;8.550001;7.75;;;;;;;8.26;100;95108;;;;
2022/10/01 06:14:46;;;;;;;8.550001;7.75;;;;;;;8.26;100;95108;;;;